San Francisco, California
Traffic Map
Current Weather Conditions
San Francisco, California
Few Clouds
Few Clouds
68°
Feels Like: 68°
Wind Chill: 68° Ceiling: Unl
Heat Index: 68° Visibility: 10mi
Dew Point: 59° Wind: 7mph
Humidity: 73% Direction: 100° (E)
Pressure: 29.96in Gusts: 0mph
Raw Report DataKSFO 241756Z 10006KT 10SM FEW020 20/15 A2996 RMK AO2 SLP145 T02000150 10200 20156 50001
Traffic Incident Summary
Active as of:
Severity:
Category:
InformationThere was an issue retrieving the traffic information for this location. Please try a different location or try again shortly.
Advertisements
Track Severe Weather on mobile